sensor_id;sensor_type;location;lat;lon;timestamp;temperature;humidity
31677;DHT22;18385;51.572;6.578;2023-03-01T00:01:06;2.30;52.10
31677;DHT22;18385;51.572;6.578;2023-03-01T00:03:32;2.30;52.20
31677;DHT22;18385;51.572;6.578;2023-03-01T00:05:59;2.20;52.10
31677;DHT22;18385;51.572;6.578;2023-03-01T00:08:25;2.20;52.20
31677;DHT22;18385;51.572;6.578;2023-03-01T00:13:32;2.20;53.00
31677;DHT22;18385;51.572;6.578;2023-03-01T00:15:57;2.20;52.40
31677;DHT22;18385;51.572;6.578;2023-03-01T00:18:23;2.20;52.40
31677;DHT22;18385;51.572;6.578;2023-03-01T00:20:53;2.20;52.40
31677;DHT22;18385;51.572;6.578;2023-03-01T00:23:19;2.20;52.40
31677;DHT22;18385;51.572;6.578;2023-03-01T00:25:45;2.20;52.40
31677;DHT22;18385;51.572;6.578;2023-03-01T00:28:11;2.20;52.40
31677;DHT22;18385;51.572;6.578;2023-03-01T00:30:37;2.10;52.30
31677;DHT22;18385;51.572;6.578;2023-03-01T00:33:02;2.00;52.40
31677;DHT22;18385;51.572;6.578;2023-03-01T00:35:28;1.90;52.50
31677;DHT22;18385;51.572;6.578;2023-03-01T00:37:54;1.90;52.60
31677;DHT22;18385;51.572;6.578;2023-03-01T00:40:27;1.80;52.60
31677;DHT22;18385;51.572;6.578;2023-03-01T00:42:53;1.80;52.70
31677;DHT22;18385;51.572;6.578;2023-03-01T00:45:19;1.70;52.70
31677;DHT22;18385;51.572;6.578;2023-03-01T00:47:45;1.60;52.70
31677;DHT22;18385;51.572;6.578;2023-03-01T00:50:11;1.60;52.80
31677;DHT22;18385;51.572;6.578;2023-03-01T00:52:37;1.50;52.90
31677;DHT22;18385;51.572;6.578;2023-03-01T00:55:04;1.50;52.90
31677;DHT22;18385;51.572;6.578;2023-03-01T00:57:30;1.50;53.00
31677;DHT22;18385;51.572;6.578;2023-03-01T00:59:56;1.50;53.10
31677;DHT22;18385;51.572;6.578;2023-03-01T01:02:22;1.50;53.10
31677;DHT22;18385;51.572;6.578;2023-03-01T01:04:48;1.50;53.10
31677;DHT22;18385;51.572;6.578;2023-03-01T01:07:14;1.50;53.20
31677;DHT22;18385;51.572;6.578;2023-03-01T01:09:40;1.40;53.20
31677;DHT22;18385;51.572;6.578;2023-03-01T01:12:06;1.40;53.30
31677;DHT22;18385;51.572;6.578;2023-03-01T01:14:33;1.50;53.30
31677;DHT22;18385;51.572;6.578;2023-03-01T01:16:59;1.50;53.30
31677;DHT22;18385;51.572;6.578;2023-03-01T01:19:25;1.50;53.40
31677;DHT22;18385;51.572;6.578;2023-03-01T01:21:51;1.60;53.40
31677;DHT22;18385;51.572;6.578;2023-03-01T01:24:18;1.60;53.40
31677;DHT22;18385;51.572;6.578;2023-03-01T01:26:44;1.60;53.40
31677;DHT22;18385;51.572;6.578;2023-03-01T01:29:12;1.60;53.40
31677;DHT22;18385;51.572;6.578;2023-03-01T01:31:39;1.50;53.30
31677;DHT22;18385;51.572;6.578;2023-03-01T01:34:07;1.50;53.40
31677;DHT22;18385;51.572;6.578;2023-03-01T01:36:35;1.50;53.50
31677;DHT22;18385;51.572;6.578;2023-03-01T01:39:01;1.40;53.50
31677;DHT22;18385;51.572;6.578;2023-03-01T01:41:28;1.40;53.50
31677;DHT22;18385;51.572;6.578;2023-03-01T01:47:05;1.40;53.60
31677;DHT22;18385;51.572;6.578;2023-03-01T01:52:31;1.30;53.60
31677;DHT22;18385;51.572;6.578;2023-03-01T01:55:04;1.30;53.70
31677;DHT22;18385;51.572;6.578;2023-03-01T01:57:40;1.20;54.30
31677;DHT22;18385;51.572;6.578;2023-03-01T02:00:14;1.20;53.90
31677;DHT22;18385;51.572;6.578;2023-03-01T02:02:40;1.30;54.00
31677;DHT22;18385;51.572;6.578;2023-03-01T02:05:17;1.20;53.90
31677;DHT22;18385;51.572;6.578;2023-03-01T02:07:46;1.20;54.00
31677;DHT22;18385;51.572;6.578;2023-03-01T02:10:13;1.20;53.90
31677;DHT22;18385;51.572;6.578;2023-03-01T02:12:39;1.20;54.00
31677;DHT22;18385;51.572;6.578;2023-03-01T02:15:05;1.30;54.10
31677;DHT22;18385;51.572;6.578;2023-03-01T02:17:31;1.30;54.10
31677;DHT22;18385;51.572;6.578;2023-03-01T02:20:16;1.40;54.10
31677;DHT22;18385;51.572;6.578;2023-03-01T02:22:45;1.40;54.10
31677;DHT22;18385;51.572;6.578;2023-03-01T02:25:22;1.40;54.10
31677;DHT22;18385;51.572;6.578;2023-03-01T02:28:17;1.30;54.00
31677;DHT22;18385;51.572;6.578;2023-03-01T02:30:45;1.30;54.20
31677;DHT22;18385;51.572;6.578;2023-03-01T02:33:31;1.30;54.30
31677;DHT22;18385;51.572;6.578;2023-03-01T02:36:00;1.30;54.40
31677;DHT22;18385;51.572;6.578;2023-03-01T02:38:27;1.30;54.30
31677;DHT22;18385;51.572;6.578;2023-03-01T02:40:54;1.20;54.20
31677;DHT22;18385;51.572;6.578;2023-03-01T02:43:23;1.20;54.30
31677;DHT22;18385;51.572;6.578;2023-03-01T02:45:52;1.10;54.40
31677;DHT22;18385;51.572;6.578;2023-03-01T02:48:19;1.10;54.60
31677;DHT22;18385;51.572;6.578;2023-03-01T02:51:12;1.20;54.70
31677;DHT22;18385;51.572;6.578;2023-03-01T02:56:24;1.30;54.70
31677;DHT22;18385;51.572;6.578;2023-03-01T02:58:51;1.30;54.60
31677;DHT22;18385;51.572;6.578;2023-03-01T03:01:19;1.30;54.60
31677;DHT22;18385;51.572;6.578;2023-03-01T03:03:46;1.30;54.60
31677;DHT22;18385;51.572;6.578;2023-03-01T03:06:12;1.30;54.60
31677;DHT22;18385;51.572;6.578;2023-03-01T03:08:39;1.30;54.60
31677;DHT22;18385;51.572;6.578;2023-03-01T03:11:05;1.20;54.50
31677;DHT22;18385;51.572;6.578;2023-03-01T03:13:31;1.20;54.60
31677;DHT22;18385;51.572;6.578;2023-03-01T03:15:58;1.10;54.70
31677;DHT22;18385;51.572;6.578;2023-03-01T03:18:24;1.10;54.70
31677;DHT22;18385;51.572;6.578;2023-03-01T03:20:54;1.10;54.80
31677;DHT22;18385;51.572;6.578;2023-03-01T03:23:21;1.10;54.90
31677;DHT22;18385;51.572;6.578;2023-03-01T03:25:49;1.00;54.80
31677;DHT22;18385;51.572;6.578;2023-03-01T03:28:15;0.90;54.80
31677;DHT22;18385;51.572;6.578;2023-03-01T03:30:41;0.80;54.90
31677;DHT22;18385;51.572;6.578;2023-03-01T03:33:08;0.80;54.90
31677;DHT22;18385;51.572;6.578;2023-03-01T03:35:39;0.70;54.90
31677;DHT22;18385;51.572;6.578;2023-03-01T03:38:07;0.70;55.00
31677;DHT22;18385;51.572;6.578;2023-03-01T03:40:49;0.60;55.10
31677;DHT22;18385;51.572;6.578;2023-03-01T03:43:21;0.60;55.10
31677;DHT22;18385;51.572;6.578;2023-03-01T03:45:49;0.60;55.20
31677;DHT22;18385;51.572;6.578;2023-03-01T03:48:14;0.70;55.20
31677;DHT22;18385;51.572;6.578;2023-03-01T03:50:41;0.70;55.30
31677;DHT22;18385;51.572;6.578;2023-03-01T03:53:11;0.70;55.90
31677;DHT22;18385;51.572;6.578;2023-03-01T03:55:37;0.70;55.20
31677;DHT22;18385;51.572;6.578;2023-03-01T03:58:06;0.70;55.20
31677;DHT22;18385;51.572;6.578;2023-03-01T04:00:37;0.70;55.30
31677;DHT22;18385;51.572;6.578;2023-03-01T04:03:04;0.80;55.30
31677;DHT22;18385;51.572;6.578;2023-03-01T04:05:30;0.80;55.30
31677;DHT22;18385;51.572;6.578;2023-03-01T04:07:56;0.80;55.20
31677;DHT22;18385;51.572;6.578;2023-03-01T04:10:36;0.70;55.20
31677;DHT22;18385;51.572;6.578;2023-03-01T04:13:04;0.70;55.20
31677;DHT22;18385;51.572;6.578;2023-03-01T04:15:31;0.70;55.30
31677;DHT22;18385;51.572;6.578;2023-03-01T04:17:57;0.70;55.30
31677;DHT22;18385;51.572;6.578;2023-03-01T04:20:27;0.70;55.40
31677;DHT22;18385;51.572;6.578;2023-03-01T04:22:59;0.60;55.40
31677;DHT22;18385;51.572;6.578;2023-03-01T04:25:25;0.60;55.40
31677;DHT22;18385;51.572;6.578;2023-03-01T04:27:52;0.60;55.40
31677;DHT22;18385;51.572;6.578;2023-03-01T04:30:17;0.60;55.50
31677;DHT22;18385;51.572;6.578;2023-03-01T04:32:43;0.60;55.50
31677;DHT22;18385;51.572;6.578;2023-03-01T04:35:09;0.50;55.50
31677;DHT22;18385;51.572;6.578;2023-03-01T04:37:35;0.50;55.60
31677;DHT22;18385;51.572;6.578;2023-03-01T04:40:02;0.50;55.70
31677;DHT22;18385;51.572;6.578;2023-03-01T04:42:37;0.50;55.70
31677;DHT22;18385;51.572;6.578;2023-03-01T04:45:03;0.50;55.70
31677;DHT22;18385;51.572;6.578;2023-03-01T04:47:39;0.60;55.80
31677;DHT22;18385;51.572;6.578;2023-03-01T04:50:05;0.60;55.70
31677;DHT22;18385;51.572;6.578;2023-03-01T04:52:31;0.60;55.70
31677;DHT22;18385;51.572;6.578;2023-03-01T04:54:57;0.50;55.70
31677;DHT22;18385;51.572;6.578;2023-03-01T04:57:22;0.50;55.70
31677;DHT22;18385;51.572;6.578;2023-03-01T04:59:48;0.50;55.70
31677;DHT22;18385;51.572;6.578;2023-03-01T05:02:14;0.50;55.70
31677;DHT22;18385;51.572;6.578;2023-03-01T05:04:39;0.40;55.60
31677;DHT22;18385;51.572;6.578;2023-03-01T05:07:05;0.40;56.40
31677;DHT22;18385;51.572;6.578;2023-03-01T05:09:30;0.30;55.70
31677;DHT22;18385;51.572;6.578;2023-03-01T05:11:56;0.20;55.70
31677;DHT22;18385;51.572;6.578;2023-03-01T05:14:22;0.20;55.80
31677;DHT22;18385;51.572;6.578;2023-03-01T05:16:48;0.20;55.90
31677;DHT22;18385;51.572;6.578;2023-03-01T05:19:14;0.10;56.00
31677;DHT22;18385;51.572;6.578;2023-03-01T05:21:41;0.10;56.10
31677;DHT22;18385;51.572;6.578;2023-03-01T05:24:26;0.10;56.10
31677;DHT22;18385;51.572;6.578;2023-03-01T05:26:52;0.10;56.10
31677;DHT22;18385;51.572;6.578;2023-03-01T05:29:19;0.10;56.10
31677;DHT22;18385;51.572;6.578;2023-03-01T05:31:55;0.10;56.10
31677;DHT22;18385;51.572;6.578;2023-03-01T05:34:29;0.00;56.10
31677;DHT22;18385;51.572;6.578;2023-03-01T05:36:56;-0.10;56.10
31677;DHT22;18385;51.572;6.578;2023-03-01T05:39:23;-0.10;56.10
31677;DHT22;18385;51.572;6.578;2023-03-01T05:41:55;-0.20;56.20
31677;DHT22;18385;51.572;6.578;2023-03-01T05:44:21;-0.20;56.30
31677;DHT22;18385;51.572;6.578;2023-03-01T05:46:47;-0.20;56.40
31677;DHT22;18385;51.572;6.578;2023-03-01T05:49:13;-0.20;56.50
31677;DHT22;18385;51.572;6.578;2023-03-01T05:51:47;-0.20;56.40
31677;DHT22;18385;51.572;6.578;2023-03-01T05:54:12;-0.10;56.40
31677;DHT22;18385;51.572;6.578;2023-03-01T05:56:38;-0.10;56.40
31677;DHT22;18385;51.572;6.578;2023-03-01T05:59:04;-0.10;56.40
31677;DHT22;18385;51.572;6.578;2023-03-01T06:01:34;0.00;56.50
31677;DHT22;18385;51.572;6.578;2023-03-01T06:04:00;0.00;56.40
31677;DHT22;18385;51.572;6.578;2023-03-01T06:06:26;0.00;56.40
31677;DHT22;18385;51.572;6.578;2023-03-01T06:08:52;0.10;56.30
31677;DHT22;18385;51.572;6.578;2023-03-01T06:11:18;0.10;56.40
31677;DHT22;18385;51.572;6.578;2023-03-01T06:13:44;0.20;56.40
31677;DHT22;18385;51.572;6.578;2023-03-01T06:16:10;0.20;56.40
31677;DHT22;18385;51.572;6.578;2023-03-01T06:18:36;0.20;56.30
31677;DHT22;18385;51.572;6.578;2023-03-01T06:21:03;0.20;57.00
31677;DHT22;18385;51.572;6.578;2023-03-01T06:23:28;0.30;56.40
31677;DHT22;18385;51.572;6.578;2023-03-01T06:25:54;0.30;56.40
31677;DHT22;18385;51.572;6.578;2023-03-01T06:28:20;0.30;56.40
31677;DHT22;18385;51.572;6.578;2023-03-01T06:30:46;0.30;56.40
31677;DHT22;18385;51.572;6.578;2023-03-01T06:33:11;0.30;56.50
31677;DHT22;18385;51.572;6.578;2023-03-01T06:35:37;0.30;56.40
31677;DHT22;18385;51.572;6.578;2023-03-01T06:38:05;0.30;56.50
31677;DHT22;18385;51.572;6.578;2023-03-01T06:40:31;0.30;56.50
31677;DHT22;18385;51.572;6.578;2023-03-01T06:42:58;0.30;56.50
31677;DHT22;18385;51.572;6.578;2023-03-01T06:45:24;0.30;56.50
31677;DHT22;18385;51.572;6.578;2023-03-01T06:47:50;0.30;56.50
31677;DHT22;18385;51.572;6.578;2023-03-01T06:50:16;0.30;56.40
31677;DHT22;18385;51.572;6.578;2023-03-01T06:52:43;0.30;56.50
31677;DHT22;18385;51.572;6.578;2023-03-01T06:55:10;0.30;56.60
31677;DHT22;18385;51.572;6.578;2023-03-01T06:57:36;0.40;56.70
31677;DHT22;18385;51.572;6.578;2023-03-01T07:00:03;0.40;56.70
31677;DHT22;18385;51.572;6.578;2023-03-01T07:02:29;0.50;56.70
31677;DHT22;18385;51.572;6.578;2023-03-01T07:04:55;0.60;57.40
31677;DHT22;18385;51.572;6.578;2023-03-01T07:07:21;0.70;56.80
31677;DHT22;18385;51.572;6.578;2023-03-01T07:09:48;0.80;56.70
31677;DHT22;18385;51.572;6.578;2023-03-01T07:12:14;0.90;56.70
31677;DHT22;18385;51.572;6.578;2023-03-01T07:14:40;0.90;56.60
31677;DHT22;18385;51.572;6.578;2023-03-01T07:17:05;0.90;56.50
31677;DHT22;18385;51.572;6.578;2023-03-01T07:19:31;0.90;56.60
31677;DHT22;18385;51.572;6.578;2023-03-01T07:21:57;1.00;56.70
31677;DHT22;18385;51.572;6.578;2023-03-01T07:24:23;1.10;57.30
31677;DHT22;18385;51.572;6.578;2023-03-01T07:26:49;1.10;56.60
31677;DHT22;18385;51.572;6.578;2023-03-01T07:29:16;1.20;56.60
31677;DHT22;18385;51.572;6.578;2023-03-01T07:31:41;1.20;56.60
31677;DHT22;18385;51.572;6.578;2023-03-01T07:34:07;1.30;56.60
31677;DHT22;18385;51.572;6.578;2023-03-01T07:36:33;1.40;56.60
31677;DHT22;18385;51.572;6.578;2023-03-01T07:38:58;1.40;56.60
31677;DHT22;18385;51.572;6.578;2023-03-01T07:41:24;1.50;56.60
31677;DHT22;18385;51.572;6.578;2023-03-01T07:43:50;1.60;56.50
31677;DHT22;18385;51.572;6.578;2023-03-01T07:46:16;1.60;56.50
31677;DHT22;18385;51.572;6.578;2023-03-01T07:48:43;1.70;56.60
31677;DHT22;18385;51.572;6.578;2023-03-01T07:51:09;1.80;56.60
31677;DHT22;18385;51.572;6.578;2023-03-01T07:53:35;1.80;56.60
31677;DHT22;18385;51.572;6.578;2023-03-01T07:58:27;2.00;56.60
31677;DHT22;18385;51.572;6.578;2023-03-01T08:00:53;2.10;56.60
31677;DHT22;18385;51.572;6.578;2023-03-01T08:03:19;2.10;56.50
31677;DHT22;18385;51.572;6.578;2023-03-01T08:05:44;2.20;56.50
31677;DHT22;18385;51.572;6.578;2023-03-01T08:08:10;2.30;56.50
31677;DHT22;18385;51.572;6.578;2023-03-01T08:10:36;2.30;56.40
31677;DHT22;18385;51.572;6.578;2023-03-01T08:13:02;2.40;56.50
31677;DHT22;18385;51.572;6.578;2023-03-01T08:15:27;2.50;56.50
31677;DHT22;18385;51.572;6.578;2023-03-01T08:17:53;2.60;56.50
31677;DHT22;18385;51.572;6.578;2023-03-01T08:20:19;2.60;56.40
31677;DHT22;18385;51.572;6.578;2023-03-01T08:22:45;2.70;57.00
31677;DHT22;18385;51.572;6.578;2023-03-01T08:25:10;2.80;56.50
31677;DHT22;18385;51.572;6.578;2023-03-01T08:27:36;2.90;56.40
31677;DHT22;18385;51.572;6.578;2023-03-01T08:30:02;2.90;56.40
31677;DHT22;18385;51.572;6.578;2023-03-01T08:32:27;3.00;56.40
31677;DHT22;18385;51.572;6.578;2023-03-01T08:34:53;3.10;56.30
31677;DHT22;18385;51.572;6.578;2023-03-01T08:37:18;3.20;56.40
31677;DHT22;18385;51.572;6.578;2023-03-01T08:39:44;3.20;56.30
31677;DHT22;18385;51.572;6.578;2023-03-01T08:42:10;3.30;56.30
31677;DHT22;18385;51.572;6.578;2023-03-01T08:44:35;3.40;56.30
31677;DHT22;18385;51.572;6.578;2023-03-01T08:47:01;3.50;56.30
31677;DHT22;18385;51.572;6.578;2023-03-01T08:49:28;3.50;56.30
31677;DHT22;18385;51.572;6.578;2023-03-01T08:51:53;3.60;56.30
31677;DHT22;18385;51.572;6.578;2023-03-01T08:54:21;3.70;56.30
31677;DHT22;18385;51.572;6.578;2023-03-01T08:56:47;3.80;56.30
31677;DHT22;18385;51.572;6.578;2023-03-01T08:59:17;3.90;56.20
31677;DHT22;18385;51.572;6.578;2023-03-01T09:01:43;4.00;56.20
31677;DHT22;18385;51.572;6.578;2023-03-01T09:04:10;4.00;56.20
31677;DHT22;18385;51.572;6.578;2023-03-01T09:06:35;4.10;56.10
31677;DHT22;18385;51.572;6.578;2023-03-01T09:09:03;4.20;56.10
31677;DHT22;18385;51.572;6.578;2023-03-01T09:11:29;4.30;56.10
31677;DHT22;18385;51.572;6.578;2023-03-01T09:13:55;4.40;56.10
31677;DHT22;18385;51.572;6.578;2023-03-01T09:16:22;4.50;56.00
31677;DHT22;18385;51.572;6.578;2023-03-01T09:18:50;4.60;56.00
31677;DHT22;18385;51.572;6.578;2023-03-01T09:21:18;4.70;56.00
31677;DHT22;18385;51.572;6.578;2023-03-01T09:23:46;4.80;56.00
31677;DHT22;18385;51.572;6.578;2023-03-01T09:26:14;4.90;56.60
31677;DHT22;18385;51.572;6.578;2023-03-01T09:28:42;4.90;55.90
31677;DHT22;18385;51.572;6.578;2023-03-01T09:31:09;5.00;55.90
31677;DHT22;18385;51.572;6.578;2023-03-01T09:33:39;5.10;55.90
31677;DHT22;18385;51.572;6.578;2023-03-01T09:36:07;5.10;55.90
31677;DHT22;18385;51.572;6.578;2023-03-01T09:38:33;5.20;55.80
31677;DHT22;18385;51.572;6.578;2023-03-01T09:41:00;5.30;55.90
31677;DHT22;18385;51.572;6.578;2023-03-01T09:43:41;5.30;55.80
31677;DHT22;18385;51.572;6.578;2023-03-01T09:46:10;5.40;55.80
31677;DHT22;18385;51.572;6.578;2023-03-01T09:48:57;5.40;55.70
31677;DHT22;18385;51.572;6.578;2023-03-01T09:51:29;5.50;56.40
31677;DHT22;18385;51.572;6.578;2023-03-01T09:53:55;5.60;55.70
31677;DHT22;18385;51.572;6.578;2023-03-01T09:56:59;5.60;55.70
31677;DHT22;18385;51.572;6.578;2023-03-01T10:00:19;5.70;55.70
31677;DHT22;18385;51.572;6.578;2023-03-01T10:04:55;5.90;55.70
31677;DHT22;18385;51.572;6.578;2023-03-01T10:10:08;6.10;55.40
31677;DHT22;18385;51.572;6.578;2023-03-01T10:12:37;6.10;55.30
31677;DHT22;18385;51.572;6.578;2023-03-01T10:15:22;6.20;55.20
31677;DHT22;18385;51.572;6.578;2023-03-01T10:17:56;6.20;55.10
31677;DHT22;18385;51.572;6.578;2023-03-01T10:20:25;6.30;55.20
31677;DHT22;18385;51.572;6.578;2023-03-01T10:22:51;6.30;55.10
31677;DHT22;18385;51.572;6.578;2023-03-01T10:25:43;6.40;55.10
31677;DHT22;18385;51.572;6.578;2023-03-01T10:30:52;6.60;55.00
31677;DHT22;18385;51.572;6.578;2023-03-01T10:33:24;6.60;54.90
31677;DHT22;18385;51.572;6.578;2023-03-01T10:35:50;6.70;54.80
31677;DHT22;18385;51.572;6.578;2023-03-01T10:38:16;6.70;54.70
31677;DHT22;18385;51.572;6.578;2023-03-01T10:40:54;6.80;54.70
31677;DHT22;18385;51.572;6.578;2023-03-01T10:43:27;6.80;54.50
31677;DHT22;18385;51.572;6.578;2023-03-01T10:45:55;6.90;54.60
31677;DHT22;18385;51.572;6.578;2023-03-01T10:48:26;7.00;54.60
31677;DHT22;18385;51.572;6.578;2023-03-01T10:54:02;7.00;54.20
31677;DHT22;18385;51.572;6.578;2023-03-01T10:56:21;7.10;54.20
31677;DHT22;18385;51.572;6.578;2023-03-01T11:01:24;7.20;54.10
31677;DHT22;18385;51.572;6.578;2023-03-01T11:06:36;7.20;53.90
31677;DHT22;18385;51.572;6.578;2023-03-01T11:09:18;7.30;54.00
31677;DHT22;18385;51.572;6.578;2023-03-01T11:11:44;7.40;53.90
31677;DHT22;18385;51.572;6.578;2023-03-01T11:14:17;7.40;53.80
31677;DHT22;18385;51.572;6.578;2023-03-01T11:16:49;7.50;53.70
31677;DHT22;18385;51.572;6.578;2023-03-01T11:19:23;7.50;53.50
31677;DHT22;18385;51.572;6.578;2023-03-01T11:22:03;7.50;53.40
31677;DHT22;18385;51.572;6.578;2023-03-01T11:27:28;7.60;53.40
31677;DHT22;18385;51.572;6.578;2023-03-01T11:32:29;7.70;53.20
31677;DHT22;18385;51.572;6.578;2023-03-01T11:37:59;7.80;52.90
31677;DHT22;18385;51.572;6.578;2023-03-01T11:57:20;8.20;52.20
31677;DHT22;18385;51.572;6.578;2023-03-01T12:05:40;8.50;52.10
31677;DHT22;18385;51.572;6.578;2023-03-01T12:08:20;8.60;52.00
31677;DHT22;18385;51.572;6.578;2023-03-01T12:13:57;8.70;51.70
31677;DHT22;18385;51.572;6.578;2023-03-01T12:22:01;8.70;51.40
31677;DHT22;18385;51.572;6.578;2023-03-01T12:27:26;8.80;51.50
31677;DHT22;18385;51.572;6.578;2023-03-01T12:32:46;8.90;51.20
31677;DHT22;18385;51.572;6.578;2023-03-01T12:38:33;9.10;51.10
31677;DHT22;18385;51.572;6.578;2023-03-01T12:46:53;9.40;50.70
31677;DHT22;18385;51.572;6.578;2023-03-01T12:49:28;9.40;50.50
31677;DHT22;18385;51.572;6.578;2023-03-01T12:54:51;9.50;50.30
31677;DHT22;18385;51.572;6.578;2023-03-01T12:57:39;9.50;50.40
31677;DHT22;18385;51.572;6.578;2023-03-01T13:00:34;9.70;50.20
31677;DHT22;18385;51.572;6.578;2023-03-01T13:03:36;9.80;50.00
31677;DHT22;18385;51.572;6.578;2023-03-01T13:06:25;9.80;50.00
31677;DHT22;18385;51.572;6.578;2023-03-01T13:11:41;10.00;49.80
31677;DHT22;18385;51.572;6.578;2023-03-01T13:16:50;10.20;49.50
31677;DHT22;18385;51.572;6.578;2023-03-01T13:19:22;10.20;49.50
31677;DHT22;18385;51.572;6.578;2023-03-01T13:21:49;10.20;49.30
31677;DHT22;18385;51.572;6.578;2023-03-01T13:24:27;10.30;49.20
31677;DHT22;18385;51.572;6.578;2023-03-01T13:29:54;10.60;49.00
31677;DHT22;18385;51.572;6.578;2023-03-01T13:32:28;10.70;48.90
31677;DHT22;18385;51.572;6.578;2023-03-01T13:35:40;10.80;48.80
31677;DHT22;18385;51.572;6.578;2023-03-01T13:41:04;10.90;48.70
31677;DHT22;18385;51.572;6.578;2023-03-01T13:43:36;11.00;48.60
31677;DHT22;18385;51.572;6.578;2023-03-01T13:46:21;11.10;48.40
31677;DHT22;18385;51.572;6.578;2023-03-01T13:48:53;11.10;48.10
31677;DHT22;18385;51.572;6.578;2023-03-01T13:51:23;11.20;48.20
31677;DHT22;18385;51.572;6.578;2023-03-01T13:53:51;11.40;48.50
31677;DHT22;18385;51.572;6.578;2023-03-01T13:56:23;11.90;49.10
31677;DHT22;18385;51.572;6.578;2023-03-01T13:59:15;12.50;49.20
31677;DHT22;18385;51.572;6.578;2023-03-01T14:01:41;13.10;49.00
31677;DHT22;18385;51.572;6.578;2023-03-01T14:04:30;13.40;48.70
31677;DHT22;18385;51.572;6.578;2023-03-01T14:07:19;14.00;48.70
31677;DHT22;18385;51.572;6.578;2023-03-01T14:09:47;14.50;48.50
31677;DHT22;18385;51.572;6.578;2023-03-01T14:12:44;14.70;48.00
31677;DHT22;18385;51.572;6.578;2023-03-01T14:15:19;15.20;47.50
31677;DHT22;18385;51.572;6.578;2023-03-01T14:20:28;15.10;47.10
31677;DHT22;18385;51.572;6.578;2023-03-01T14:22:58;15.40;46.90
31677;DHT22;18385;51.572;6.578;2023-03-01T14:25:25;15.50;46.40
31677;DHT22;18385;51.572;6.578;2023-03-01T14:27:58;15.60;45.90
31677;DHT22;18385;51.572;6.578;2023-03-01T14:33:19;16.00;45.50
31677;DHT22;18385;51.572;6.578;2023-03-01T14:35:59;16.20;45.20
31677;DHT22;18385;51.572;6.578;2023-03-01T14:38:44;16.50;45.00
31677;DHT22;18385;51.572;6.578;2023-03-01T14:41:15;17.00;44.60
31677;DHT22;18385;51.572;6.578;2023-03-01T14:43:46;17.20;44.10
31677;DHT22;18385;51.572;6.578;2023-03-01T14:46:52;17.30;43.70
31677;DHT22;18385;51.572;6.578;2023-03-01T14:49:21;17.50;43.40
31677;DHT22;18385;51.572;6.578;2023-03-01T14:52:03;17.50;43.10
31677;DHT22;18385;51.572;6.578;2023-03-01T14:54:39;17.60;42.10
31677;DHT22;18385;51.572;6.578;2023-03-01T14:57:24;17.30;41.70
31677;DHT22;18385;51.572;6.578;2023-03-01T14:59:52;16.10;40.60
31677;DHT22;18385;51.572;6.578;2023-03-01T15:02:21;14.70;41.00
31677;DHT22;18385;51.572;6.578;2023-03-01T15:05:04;13.70;41.60
31677;DHT22;18385;51.572;6.578;2023-03-01T15:07:34;12.90;42.40
31677;DHT22;18385;51.572;6.578;2023-03-01T15:10:02;12.40;42.80
31677;DHT22;18385;51.572;6.578;2023-03-01T15:14:55;11.70;43.10
31677;DHT22;18385;51.572;6.578;2023-03-01T15:17:31;11.50;43.20
31677;DHT22;18385;51.572;6.578;2023-03-01T15:19:58;11.30;43.20
31677;DHT22;18385;51.572;6.578;2023-03-01T15:22:26;11.10;43.20
31677;DHT22;18385;51.572;6.578;2023-03-01T15:24:53;11.00;43.30
31677;DHT22;18385;51.572;6.578;2023-03-01T15:27:22;10.90;43.30
31677;DHT22;18385;51.572;6.578;2023-03-01T15:29:56;10.80;43.40
31677;DHT22;18385;51.572;6.578;2023-03-01T15:32:36;10.70;43.50
31677;DHT22;18385;51.572;6.578;2023-03-01T15:35:39;10.60;43.30
31677;DHT22;18385;51.572;6.578;2023-03-01T15:38:32;10.50;43.30
31677;DHT22;18385;51.572;6.578;2023-03-01T15:41:03;10.30;43.30
31677;DHT22;18385;51.572;6.578;2023-03-01T15:43:56;10.20;43.30
31677;DHT22;18385;51.572;6.578;2023-03-01T15:46:33;10.20;43.40
31677;DHT22;18385;51.572;6.578;2023-03-01T15:49:03;10.10;43.40
31677;DHT22;18385;51.572;6.578;2023-03-01T15:51:33;10.00;43.40
31677;DHT22;18385;51.572;6.578;2023-03-01T15:54:00;10.00;43.60
31677;DHT22;18385;51.572;6.578;2023-03-01T15:56:26;9.80;43.70
31677;DHT22;18385;51.572;6.578;2023-03-01T15:58:52;9.80;43.60
31677;DHT22;18385;51.572;6.578;2023-03-01T16:01:18;9.80;43.50
31677;DHT22;18385;51.572;6.578;2023-03-01T16:03:44;9.80;43.50
31677;DHT22;18385;51.572;6.578;2023-03-01T16:06:10;9.80;43.60
31677;DHT22;18385;51.572;6.578;2023-03-01T16:08:37;9.70;43.50
31677;DHT22;18385;51.572;6.578;2023-03-01T16:11:04;9.60;43.50
31677;DHT22;18385;51.572;6.578;2023-03-01T16:13:31;9.60;43.50
31677;DHT22;18385;51.572;6.578;2023-03-01T16:15:58;9.60;43.60
31677;DHT22;18385;51.572;6.578;2023-03-01T16:18:23;9.50;43.50
31677;DHT22;18385;51.572;6.578;2023-03-01T16:20:49;9.50;43.50
31677;DHT22;18385;51.572;6.578;2023-03-01T16:23:15;9.40;43.50
31677;DHT22;18385;51.572;6.578;2023-03-01T16:25:41;9.40;43.60
31677;DHT22;18385;51.572;6.578;2023-03-01T16:28:08;9.30;43.50
31677;DHT22;18385;51.572;6.578;2023-03-01T16:30:39;9.30;43.60
31677;DHT22;18385;51.572;6.578;2023-03-01T16:33:04;9.20;43.70
31677;DHT22;18385;51.572;6.578;2023-03-01T16:35:33;9.10;43.80
31677;DHT22;18385;51.572;6.578;2023-03-01T16:37:59;9.00;43.70
31677;DHT22;18385;51.572;6.578;2023-03-01T16:40:27;8.90;43.80
31677;DHT22;18385;51.572;6.578;2023-03-01T16:42:54;8.90;43.80
31677;DHT22;18385;51.572;6.578;2023-03-01T16:45:26;8.80;43.80
31677;DHT22;18385;51.572;6.578;2023-03-01T16:47:52;8.70;43.70
31677;DHT22;18385;51.572;6.578;2023-03-01T16:50:18;8.70;43.80
31677;DHT22;18385;51.572;6.578;2023-03-01T16:52:44;8.60;43.80
31677;DHT22;18385;51.572;6.578;2023-03-01T16:55:10;8.50;43.80
31677;DHT22;18385;51.572;6.578;2023-03-01T16:57:38;8.50;44.00
31677;DHT22;18385;51.572;6.578;2023-03-01T17:00:08;8.40;43.90
31677;DHT22;18385;51.572;6.578;2023-03-01T17:02:36;8.30;44.00
31677;DHT22;18385;51.572;6.578;2023-03-01T17:05:02;8.20;44.00
31677;DHT22;18385;51.572;6.578;2023-03-01T17:07:32;8.10;44.00
31677;DHT22;18385;51.572;6.578;2023-03-01T17:10:00;8.00;44.10
31677;DHT22;18385;51.572;6.578;2023-03-01T17:12:25;7.90;44.20
31677;DHT22;18385;51.572;6.578;2023-03-01T17:14:51;7.80;44.30
31677;DHT22;18385;51.572;6.578;2023-03-01T17:17:17;7.70;44.30
31677;DHT22;18385;51.572;6.578;2023-03-01T17:19:42;7.60;44.40
31677;DHT22;18385;51.572;6.578;2023-03-01T17:22:12;7.60;44.40
31677;DHT22;18385;51.572;6.578;2023-03-01T17:24:42;7.50;44.60
31677;DHT22;18385;51.572;6.578;2023-03-01T17:27:10;7.40;44.50
31677;DHT22;18385;51.572;6.578;2023-03-01T17:29:37;7.30;44.60
31677;DHT22;18385;51.572;6.578;2023-03-01T17:32:03;7.20;44.60
31677;DHT22;18385;51.572;6.578;2023-03-01T17:34:30;7.10;44.70
31677;DHT22;18385;51.572;6.578;2023-03-01T17:36:56;7.10;44.80
31677;DHT22;18385;51.572;6.578;2023-03-01T17:39:22;7.00;44.80
31677;DHT22;18385;51.572;6.578;2023-03-01T17:41:51;6.90;44.80
31677;DHT22;18385;51.572;6.578;2023-03-01T17:44:17;6.90;44.90